Time;durP1;ratioP1;P1;durP2;ratioP2;P2;SDS_P1;SDS_P2;PMS_P1;PMS_P2;Temp;Humidity;BMP_temperature;BMP_pressure;BME280_temperature;BME280_humidity;BME280_pressure;Samples;Min_cycle;Max_cycle;Signal;HPM_P1;HPM_P2
2021/12/02 00:01:29;;;;;;;6.93;0.60;;;3.50;99.90;;;;;;5097084;28;20097;-70
2021/12/02 00:03:56;;;;;;;6.13;0.93;;;3.40;99.90;;;;;;5078937;28;20327;-71
2021/12/02 00:06:24;;;;;;;2.53;0.90;;;3.20;99.90;;;;;;5095976;28;20114;-71
2021/12/02 00:08:52;;;;;;;3.08;1.35;;;3.20;99.90;;;;;;5078735;28;20016;-71
2021/12/02 00:11:20;;;;;;;1.45;0.52;;;3.10;99.90;;;;;;5096665;28;20047;-71
2021/12/02 00:22:00;;;;;;;6.35;0.88;;;3.00;99.90;;;;;;5099708;28;20031;-70
2021/12/02 00:24:36;;;;;;;4.95;1.13;;;3.10;99.90;;;;;;5100204;28;20027;-71
2021/12/02 00:27:09;;;;;;;3.20;1.27;;;3.10;99.90;;;;;;5100720;28;20027;-71
2021/12/02 00:29:39;;;;;;;5.97;0.93;;;3.10;99.90;;;;;;5100869;28;20332;-71
2021/12/02 00:32:08;;;;;;;5.45;0.85;;;3.10;99.90;;;;;;5100327;28;20324;-71
2021/12/02 00:34:48;;;;;;;8.63;1.25;;;3.20;99.90;;;;;;5100908;28;20101;-70
2021/12/02 00:37:15;;;;;;;12.30;1.33;;;3.30;99.90;;;;;;5082760;28;20028;-71
2021/12/02 00:39:43;;;;;;;2.17;0.70;;;3.30;99.90;;;;;;5100998;28;20042;-70
2021/12/02 00:42:10;;;;;;;2.83;0.57;;;3.40;99.90;;;;;;5100410;28;20016;-71
2021/12/02 00:44:38;;;;;;;4.90;1.27;;;3.50;99.90;;;;;;5099307;28;20028;-71
2021/12/02 00:47:08;;;;;;;3.45;0.90;;;3.60;99.90;;;;;;5099136;28;20137;-71
2021/12/02 00:49:35;;;;;;;1.42;0.47;;;3.60;99.90;;;;;;5099334;28;20024;-71
2021/12/02 00:52:05;;;;;;;5.13;1.08;;;3.60;99.90;;;;;;5099072;28;20099;-71
2021/12/02 00:54:33;;;;;;;4.60;0.95;;;3.70;99.90;;;;;;5099096;28;20027;-71
2021/12/02 00:57:04;;;;;;;3.47;0.68;;;3.70;99.90;;;;;;5099595;28;20024;-71
2021/12/02 00:59:31;;;;;;;6.85;0.98;;;3.80;99.90;;;;;;5099673;28;20028;-71
2021/12/02 01:01:59;;;;;;;7.32;1.67;;;3.80;99.90;;;;;;5098745;28;20044;-71
2021/12/02 01:04:26;;;;;;;7.10;1.25;;;3.80;99.90;;;;;;5099870;28;20028;-70
2021/12/02 01:06:54;;;;;;;10.23;1.63;;;3.80;99.90;;;;;;5081673;28;20056;-71
2021/12/02 01:09:22;;;;;;;3.00;1.33;;;3.80;99.90;;;;;;5100240;28;20068;-71
2021/12/02 01:11:50;;;;;;;6.25;1.25;;;3.80;99.90;;;;;;5081734;28;20016;-70
2021/12/02 01:14:17;;;;;;;7.13;0.98;;;3.80;99.90;;;;;;5100179;28;20017;-71
2021/12/02 01:16:45;;;;;;;3.42;0.68;;;3.80;99.90;;;;;;5081664;28;20043;-70
2021/12/02 01:19:12;;;;;;;5.03;0.85;;;3.80;99.90;;;;;;5099742;28;20024;-71
2021/12/02 01:21:45;;;;;;;2.97;1.27;;;3.70;99.90;;;;;;5098444;28;20060;-71
2021/12/02 01:24:15;;;;;;;2.63;0.80;;;3.60;99.90;;;;;;5097838;28;20028;-70
2021/12/02 01:26:54;;;;;;;2.83;0.73;;;3.60;99.90;;;;;;5098425;28;20042;-71
2021/12/02 01:29:23;;;;;;;7.95;0.85;;;3.70;99.90;;;;;;5098595;28;20020;-71
2021/12/02 01:31:53;;;;;;;5.57;0.50;;;3.70;99.90;;;;;;5098353;28;20427;-70
2021/12/02 01:34:26;;;;;;;5.47;1.60;;;3.70;99.90;;;;;;5098888;28;20128;-71
2021/12/02 01:36:54;;;;;;;3.67;1.00;;;3.70;99.90;;;;;;5098604;28;20500;-71
2021/12/02 01:39:22;;;;;;;3.50;0.45;;;3.70;99.90;;;;;;5098233;28;20103;-71
2021/12/02 01:41:52;;;;;;;2.75;0.60;;;3.70;99.90;;;;;;5080794;28;20111;-70
2021/12/02 01:44:21;;;;;;;3.53;0.60;;;3.60;99.90;;;;;;5098842;28;20016;-70
2021/12/02 01:46:52;;;;;;;8.05;1.55;;;3.60;99.90;;;;;;5080942;28;20077;-70
2021/12/02 01:49:22;;;;;;;5.82;0.57;;;3.60;99.90;;;;;;5099622;28;20039;-70
2021/12/02 01:51:54;;;;;;;8.27;1.05;;;3.60;99.90;;;;;;5099534;28;20095;-70
2021/12/02 01:54:24;;;;;;;2.10;0.50;;;3.60;99.90;;;;;;5098904;28;20024;-70
2021/12/02 01:56:54;;;;;;;6.13;2.35;;;3.60;99.90;;;;;;5098798;28;20024;-70
2021/12/02 01:59:28;;;;;;;1.52;0.60;;;3.60;99.90;;;;;;5098451;28;20020;-70
2021/12/02 02:01:59;;;;;;;7.03;1.33;;;3.60;99.90;;;;;;5097512;28;20062;-71
2021/12/02 02:04:26;;;;;;;4.13;1.23;;;3.60;99.90;;;;;;5097740;28;20035;-70
2021/12/02 02:06:58;;;;;;;6.32;1.08;;;3.50;99.90;;;;;;5079546;28;20137;-70
2021/12/02 02:09:28;;;;;;;5.93;1.25;;;3.50;99.90;;;;;;5097799;28;20456;-71
2021/12/02 02:11:55;;;;;;;7.95;1.10;;;3.50;99.90;;;;;;5097579;28;20047;-70
2021/12/02 02:14:27;;;;;;;1.73;0.82;;;3.50;99.90;;;;;;5097572;28;20020;-70
2021/12/02 02:16:56;;;;;;;4.13;1.13;;;3.40;99.90;;;;;;5097495;28;20035;-71
2021/12/02 02:19:28;;;;;;;7.57;1.70;;;3.40;99.90;;;;;;5097258;28;20439;-71
2021/12/02 02:21:57;;;;;;;4.07;1.35;;;3.40;99.90;;;;;;5098055;28;20081;-70
2021/12/02 02:24:24;;;;;;;6.55;3.50;;;3.40;99.90;;;;;;5098438;28;20016;-70
2021/12/02 02:26:52;;;;;;;2.75;0.70;;;3.30;99.90;;;;;;5098441;28;20051;-70
2021/12/02 02:29:19;;;;;;;4.28;0.70;;;3.30;99.90;;;;;;5080213;28;20023;-70
2021/12/02 02:31:47;;;;;;;6.38;1.42;;;3.30;99.90;;;;;;5098282;28;20012;-70
2021/12/02 02:34:15;;;;;;;6.43;1.10;;;3.30;99.90;;;;;;5080114;28;20032;-70
2021/12/02 02:36:55;;;;;;;15.63;1.38;;;3.20;99.90;;;;;;5096901;28;20042;-70
2021/12/02 02:39:25;;;;;;;3.22;0.88;;;3.20;99.90;;;;;;5097301;28;20031;-70
2021/12/02 02:42:00;;;;;;;8.38;1.27;;;3.20;99.90;;;;;;5097606;28;20312;-70
2021/12/02 02:44:30;;;;;;;14.65;1.63;;;3.20;99.90;;;;;;5097083;28;20055;-70
2021/12/02 02:46:58;;;;;;;5.00;0.95;;;3.20;99.90;;;;;;5096851;28;20059;-70
2021/12/02 02:49:25;;;;;;;5.43;0.93;;;3.20;99.90;;;;;;5079101;28;20028;-70
2021/12/02 02:51:53;;;;;;;11.50;1.35;;;3.10;99.90;;;;;;5096853;28;20062;-70
2021/12/02 02:54:22;;;;;;;6.63;1.15;;;3.10;99.90;;;;;;5097449;28;20028;-70
2021/12/02 02:57:08;;;;;;;3.53;0.68;;;3.10;99.90;;;;;;5097346;28;20028;-71
2021/12/02 03:00:02;;;;;;;3.65;0.95;;;3.00;99.90;;;;;;5097574;28;20028;-71
2021/12/02 03:02:38;;;;;;;7.38;1.58;;;3.00;99.90;;;;;;5079761;28;20028;-70
2021/12/02 03:07:42;;;;;;;6.72;0.60;;;3.00;99.90;;;;;;5097603;28;20336;-70
2021/12/02 03:12:58;;;;;;;6.05;0.85;;;2.90;99.90;;;;;;5097647;28;20024;-70
2021/12/02 03:18:13;;;;;;;3.88;0.90;;;2.90;99.90;;;;;;5096844;28;20027;-70
2021/12/02 03:20:40;;;;;;;1.10;0.63;;;2.90;99.90;;;;;;5079449;28;20024;-70
2021/12/02 03:23:08;;;;;;;10.00;1.77;;;2.90;99.90;;;;;;5096589;28;20060;-70
2021/12/02 03:25:35;;;;;;;9.43;1.23;;;2.90;99.90;;;;;;5096372;28;20028;-70
2021/12/02 03:28:04;;;;;;;6.53;1.67;;;2.90;99.90;;;;;;5096620;28;20044;-70
2021/12/02 03:31:03;;;;;;;6.50;1.40;;;2.90;99.90;;;;;;5096501;28;20024;-70
2021/12/02 03:33:31;;;;;;;3.03;1.00;;;2.80;99.90;;;;;;5096464;28;20027;-70
2021/12/02 03:35:59;;;;;;;6.00;1.27;;;2.80;99.90;;;;;;5078489;28;20027;-70
2021/12/02 03:38:26;;;;;;;5.75;1.40;;;2.70;99.90;;;;;;5097857;28;20423;-70
2021/12/02 03:40:54;;;;;;;8.68;1.30;;;2.70;99.90;;;;;;5097856;28;20058;-70
2021/12/02 03:43:22;;;;;;;4.13;0.85;;;2.70;99.90;;;;;;5097650;28;20048;-70
2021/12/02 03:45:50;;;;;;;5.55;1.00;;;2.70;99.90;;;;;;5097224;28;20329;-70
2021/12/02 03:48:17;;;;;;;5.15;1.20;;;2.70;99.90;;;;;;5100661;28;20027;-70
2021/12/02 03:50:44;;;;;;;5.93;0.93;;;2.70;99.90;;;;;;5101300;28;20016;-70
2021/12/02 03:53:11;;;;;;;3.35;1.00;;;2.70;99.90;;;;;;5101693;28;20470;-70
2021/12/02 03:55:39;;;;;;;5.57;0.85;;;2.70;99.90;;;;;;5101301;28;20298;-70
2021/12/02 03:58:07;;;;;;;2.38;1.10;;;2.70;99.90;;;;;;5100920;28;20070;-70
2021/12/02 04:00:35;;;;;;;11.68;1.45;;;2.70;99.90;;;;;;5099768;28;20071;-70
2021/12/02 04:03:02;;;;;;;8.70;1.27;;;2.70;99.90;;;;;;5081956;28;20028;-70
2021/12/02 04:05:30;;;;;;;2.25;0.73;;;2.70;99.90;;;;;;5099950;28;20119;-70
2021/12/02 04:08:01;;;;;;;6.15;1.27;;;2.60;99.90;;;;;;5100257;28;20025;-70
2021/12/02 04:10:31;;;;;;;12.35;1.83;;;2.60;99.90;;;;;;5099876;28;20016;-70
2021/12/02 04:15:45;;;;;;;1.38;0.73;;;2.50;99.90;;;;;;5099856;28;20080;-70
2021/12/02 04:18:13;;;;;;;8.43;1.48;;;2.50;99.90;;;;;;5100753;28;20024;-70
2021/12/02 04:20:41;;;;;;;8.55;1.02;;;2.50;99.90;;;;;;5100756;28;20115;-70
2021/12/02 04:23:08;;;;;;;2.47;0.73;;;2.50;99.90;;;;;;5100373;28;20411;-70
2021/12/02 04:25:36;;;;;;;8.13;1.48;;;2.50;99.90;;;;;;5100464;28;20053;-70
2021/12/02 04:28:03;;;;;;;7.07;2.35;;;2.40;99.90;;;;;;5101091;28;20431;-70
2021/12/02 04:30:31;;;;;;;11.82;1.50;;;2.40;99.90;;;;;;5100442;28;20020;-70
2021/12/02 04:32:58;;;;;;;11.13;1.48;;;2.40;99.90;;;;;;5082389;28;20101;-70
2021/12/02 04:35:26;;;;;;;13.45;1.40;;;2.50;99.90;;;;;;5100069;28;20107;-70
2021/12/02 04:37:53;;;;;;;10.32;1.48;;;2.50;99.90;;;;;;5099266;28;20111;-70
2021/12/02 04:40:22;;;;;;;5.93;1.08;;;2.50;99.90;;;;;;5099851;28;20023;-70
2021/12/02 04:42:49;;;;;;;9.02;1.05;;;2.50;99.90;;;;;;5099235;28;20063;-70
2021/12/02 04:45:16;;;;;;;8.50;1.33;;;2.50;99.90;;;;;;5099218;28;20319;-71
2021/12/02 04:47:44;;;;;;;4.93;1.00;;;2.50;99.90;;;;;;5099256;28;20412;-70
2021/12/02 04:50:12;;;;;;;11.15;3.38;;;2.50;99.90;;;;;;5099376;28;20020;-70
2021/12/02 04:52:39;;;;;;;8.77;1.58;;;2.50;99.90;;;;;;5099103;28;20031;-70
2021/12/02 04:55:08;;;;;;;6.03;1.75;;;2.50;99.90;;;;;;5099176;28;20055;-70
2021/12/02 04:57:35;;;;;;;6.95;1.40;;;2.50;99.90;;;;;;5099676;28;20451;-70
2021/12/02 05:00:07;;;;;;;9.52;0.90;;;2.50;99.90;;;;;;5081269;28;20060;-70
2021/12/02 05:02:34;;;;;;;8.98;1.15;;;2.50;99.90;;;;;;5099780;28;20028;-70
2021/12/02 05:05:06;;;;;;;12.05;1.15;;;2.50;99.90;;;;;;5099747;28;20063;-70
2021/12/02 05:07:33;;;;;;;8.93;1.00;;;2.50;99.90;;;;;;5099464;28;20050;-70
2021/12/02 05:10:01;;;;;;;7.13;1.27;;;2.40;99.90;;;;;;5099970;28;20382;-70
2021/12/02 05:12:29;;;;;;;6.05;1.23;;;2.40;99.90;;;;;;5100158;28;20016;-70
2021/12/02 05:14:56;;;;;;;3.20;0.95;;;2.40;99.90;;;;;;5099838;28;20020;-70
2021/12/02 05:17:23;;;;;;;11.23;1.42;;;2.40;99.90;;;;;;5081290;28;20024;-70
2021/12/02 05:19:50;;;;;;;10.52;2.33;;;2.40;99.90;;;;;;5098787;28;20355;-70
2021/12/02 05:22:18;;;;;;;12.18;1.30;;;2.30;99.90;;;;;;5080549;28;20031;-70
2021/12/02 05:24:45;;;;;;;13.48;1.67;;;2.30;99.90;;;;;;5080571;28;20507;-70
2021/12/02 05:27:14;;;;;;;11.15;1.58;;;2.30;99.90;;;;;;5098368;28;20095;-70
2021/12/02 05:29:42;;;;;;;3.70;1.33;;;2.30;99.90;;;;;;5098550;28;20016;-70
2021/12/02 05:32:09;;;;;;;4.07;0.95;;;2.30;99.90;;;;;;5098932;28;20020;-70
2021/12/02 05:34:36;;;;;;;9.52;1.38;;;2.30;99.90;;;;;;5080310;28;20052;-70
2021/12/02 05:37:04;;;;;;;8.20;1.50;;;2.30;99.90;;;;;;5098559;28;20431;-70
2021/12/02 05:39:31;;;;;;;8.35;1.63;;;2.30;99.90;;;;;;5081437;28;20028;-70
2021/12/02 05:41:59;;;;;;;6.82;1.40;;;2.20;99.90;;;;;;5099025;28;20073;-70
2021/12/02 05:44:27;;;;;;;9.57;1.70;;;2.30;99.90;;;;;;5099445;28;20028;-70
2021/12/02 05:46:54;;;;;;;5.10;1.52;;;2.30;99.90;;;;;;5098248;28;20020;-70
2021/12/02 05:49:22;;;;;;;6.00;1.20;;;2.20;99.90;;;;;;5099361;28;20023;-70
2021/12/02 05:51:49;;;;;;;12.40;1.40;;;2.30;99.90;;;;;;5080767;28;20111;-70
2021/12/02 05:54:16;;;;;;;5.35;1.08;;;2.30;99.90;;;;;;5098913;28;20016;-71
2021/12/02 05:56:44;;;;;;;9.00;1.67;;;2.30;99.90;;;;;;5097879;28;20427;-70
2021/12/02 05:59:11;;;;;;;6.93;2.33;;;2.20;99.90;;;;;;5078087;28;20402;-70
2021/12/02 06:01:42;;;;;;;7.07;1.50;;;2.30;99.90;;;;;;5097498;28;20126;-70
2021/12/02 06:04:11;;;;;;;10.05;1.40;;;2.30;99.90;;;;;;5079811;28;20081;-70
2021/12/02 06:06:41;;;;;;;12.43;1.75;;;2.30;99.90;;;;;;5079845;28;20020;-70
2021/12/02 06:09:10;;;;;;;6.53;1.27;;;2.30;99.90;;;;;;5097552;28;20114;-70
2021/12/02 06:11:37;;;;;;;6.95;1.52;;;2.30;99.90;;;;;;5097852;28;20020;-70
2021/12/02 06:14:04;;;;;;;8.13;1.80;;;2.30;99.90;;;;;;5097695;28;20030;-70
2021/12/02 06:16:32;;;;;;;8.63;1.50;;;2.30;99.90;;;;;;5098197;28;20020;-70
2021/12/02 06:19:00;;;;;;;5.45;2.53;;;2.30;99.90;;;;;;5098327;28;20020;-70
2021/12/02 06:21:27;;;;;;;5.20;1.75;;;2.30;99.90;;;;;;5098088;28;20077;-70
2021/12/02 06:23:56;;;;;;;6.50;1.92;;;2.30;99.90;;;;;;5098284;28;20306;-70
2021/12/02 06:26:23;;;;;;;3.50;1.35;;;2.30;99.90;;;;;;5097101;28;20113;-70
2021/12/02 06:28:51;;;;;;;8.30;2.05;;;2.30;99.90;;;;;;5080289;28;20023;-70
2021/12/02 06:31:18;;;;;;;11.48;2.17;;;2.20;99.90;;;;;;5098091;28;20043;-70
2021/12/02 06:33:46;;;;;;;10.52;1.63;;;2.30;99.90;;;;;;5098395;28;20485;-70
2021/12/02 06:36:14;;;;;;;9.00;2.05;;;2.20;99.90;;;;;;5097655;28;20421;-70
2021/12/02 06:38:42;;;;;;;4.85;1.80;;;2.30;99.90;;;;;;5097216;28;20297;-70
2021/12/02 06:41:10;;;;;;;8.43;1.90;;;2.30;99.90;;;;;;5097087;28;20409;-70
2021/12/02 06:43:37;;;;;;;9.20;2.15;;;2.30;99.90;;;;;;5079341;28;20339;-70
2021/12/02 06:46:04;;;;;;;7.55;1.92;;;2.30;99.90;;;;;;5096923;28;20106;-70
2021/12/02 06:48:31;;;;;;;4.68;2.28;;;2.30;99.90;;;;;;5097642;28;20069;-70
2021/12/02 06:50:59;;;;;;;6.80;2.30;;;2.40;99.90;;;;;;5078253;28;20489;-70
2021/12/02 06:53:26;;;;;;;4.38;2.28;;;2.40;99.90;;;;;;5078681;28;20024;-70
2021/12/02 06:55:54;;;;;;;15.05;3.47;;;2.40;99.90;;;;;;5097036;28;20020;-76
2021/12/02 06:58:22;;;;;;;9.23;2.95;;;2.40;99.90;;;;;;5079923;28;20028;-71
2021/12/02 07:00:49;;;;;;;9.63;3.03;;;2.40;99.90;;;;;;5097425;28;20486;-70
2021/12/02 07:03:16;;;;;;;7.85;2.25;;;2.50;99.90;;;;;;5097972;28;20475;-70
2021/12/02 07:05:44;;;;;;;5.25;2.85;;;2.50;99.90;;;;;;5097410;28;20348;-74
2021/12/02 07:08:12;;;;;;;7.72;3.50;;;2.50;99.90;;;;;;5097581;28;20408;-74
2021/12/02 07:10:40;;;;;;;9.65;2.78;;;2.50;99.90;;;;;;5097649;28;20024;-75
2021/12/02 07:13:10;;;;;;;9.05;2.58;;;2.50;99.90;;;;;;5079488;28;20077;-74
2021/12/02 07:15:44;;;;;;;9.52;2.20;;;2.50;99.90;;;;;;5079053;28;20114;-74
2021/12/02 07:18:13;;;;;;;7.50;2.55;;;2.50;99.90;;;;;;5096624;28;20084;-74
2021/12/02 07:20:43;;;;;;;7.18;2.38;;;2.40;99.90;;;;;;5077620;28;20106;-75
2021/12/02 07:23:10;;;;;;;7.57;2.40;;;2.40;99.90;;;;;;5096092;28;20373;-74
2021/12/02 07:25:40;;;;;;;7.38;2.45;;;2.40;99.90;;;;;;5097449;28;20289;-70
2021/12/02 07:28:10;;;;;;;7.85;2.75;;;2.40;99.90;;;;;;5096670;28;20081;-73
2021/12/02 07:30:38;;;;;;;4.88;2.30;;;2.40;99.90;;;;;;5096894;28;20020;-73
2021/12/02 07:33:08;;;;;;;4.88;2.17;;;2.30;99.90;;;;;;5078493;28;20028;-74
2021/12/02 07:35:35;;;;;;;6.90;2.47;;;2.30;99.90;;;;;;5078632;28;20077;-74
2021/12/02 07:38:05;;;;;;;7.75;2.10;;;2.30;99.90;;;;;;5097317;28;20493;-74
2021/12/02 07:40:34;;;;;;;9.20;4.07;;;2.30;99.90;;;;;;5079382;28;20328;-73
2021/12/02 07:43:02;;;;;;;4.65;2.53;;;2.30;99.90;;;;;;5095851;28;20032;-73
2021/12/02 07:45:37;;;;;;;7.35;2.53;;;2.30;99.90;;;;;;5079199;28;20028;-73
2021/12/02 07:48:06;;;;;;;6.80;2.10;;;2.30;99.90;;;;;;5097359;28;20044;-74
2021/12/02 07:50:36;;;;;;;15.52;4.78;;;2.30;99.90;;;;;;5097234;28;20350;-74
2021/12/02 07:53:06;;;;;;;9.77;3.50;;;2.30;99.90;;;;;;5097375;28;20074;-73
2021/12/02 07:55:39;;;;;;;7.78;3.05;;;2.30;99.90;;;;;;5096403;28;20035;-70
2021/12/02 07:58:09;;;;;;;6.53;3.20;;;2.30;99.90;;;;;;5096340;28;20012;-69
2021/12/02 08:00:38;;;;;;;6.10;2.83;;;2.30;99.90;;;;;;5095849;28;20055;-69
2021/12/02 08:03:10;;;;;;;7.07;2.45;;;2.40;99.90;;;;;;5096190;28;20024;-69
2021/12/02 08:05:38;;;;;;;5.28;3.08;;;2.40;99.90;;;;;;5095933;28;20050;-69
2021/12/02 08:08:06;;;;;;;5.75;1.80;;;2.40;99.90;;;;;;5096699;28;20138;-69
2021/12/02 08:10:33;;;;;;;7.07;2.53;;;2.40;99.90;;;;;;5096055;28;20023;-69
2021/12/02 08:13:03;;;;;;;6.80;2.13;;;2.40;99.90;;;;;;5096080;28;20016;-78
2021/12/02 08:15:31;;;;;;;4.25;1.88;;;2.40;99.90;;;;;;5078442;28;20487;-69
2021/12/02 08:17:59;;;;;;;3.92;1.88;;;2.40;99.90;;;;;;5079074;28;20106;-69
2021/12/02 08:20:28;;;;;;;3.47;2.35;;;2.40;99.90;;;;;;5097490;28;20038;-70
2021/12/02 08:22:56;;;;;;;4.32;2.20;;;2.40;99.90;;;;;;5097522;28;20074;-70
2021/12/02 08:25:26;;;;;;;6.57;3.03;;;2.50;99.90;;;;;;5097144;28;20103;-70
2021/12/02 08:27:55;;;;;;;5.85;2.80;;;2.50;99.90;;;;;;5096759;28;20028;-70
2021/12/02 08:30:26;;;;;;;9.73;3.53;;;2.50;99.90;;;;;;5096877;28;20043;-69
2021/12/02 08:32:57;;;;;;;4.35;2.35;;;2.50;99.90;;;;;;5097007;28;20443;-69
2021/12/02 08:35:26;;;;;;;4.15;2.00;;;2.50;99.90;;;;;;5099743;28;20020;-69
2021/12/02 08:37:59;;;;;;;4.47;2.38;;;2.50;99.90;;;;;;5099483;28;20106;-70
2021/12/02 08:40:37;;;;;;;5.43;2.72;;;2.60;99.90;;;;;;5099474;28;20103;-70
2021/12/02 08:43:12;;;;;;;3.67;1.95;;;2.60;99.90;;;;;;5099336;28;20328;-70
2021/12/02 08:45:42;;;;;;;4.80;1.88;;;2.60;99.90;;;;;;5082112;28;20016;-69
2021/12/02 08:48:11;;;;;;;7.28;2.30;;;2.60;99.90;;;;;;5099465;28;20020;-70
2021/12/02 08:50:39;;;;;;;4.38;2.15;;;2.70;99.90;;;;;;5081298;28;20016;-70
2021/12/02 08:53:08;;;;;;;6.25;2.40;;;2.70;99.90;;;;;;5099526;28;20040;-70
2021/12/02 08:55:39;;;;;;;11.25;2.65;;;2.70;99.90;;;;;;5100576;28;20051;-70
2021/12/02 08:58:09;;;;;;;6.80;3.53;;;2.70;99.90;;;;;;5100177;28;20055;-70
2021/12/02 09:00:39;;;;;;;4.20;2.10;;;2.80;99.90;;;;;;5099702;28;20048;-70
2021/12/02 09:03:15;;;;;;;6.68;2.97;;;2.90;99.90;;;;;;5099914;28;20073;-70
2021/12/02 09:05:43;;;;;;;6.38;2.75;;;2.90;99.90;;;;;;5100326;28;20290;-70
2021/12/02 09:08:11;;;;;;;6.18;2.88;;;3.00;99.90;;;;;;5099683;28;20023;-70
2021/12/02 09:10:38;;;;;;;7.22;3.00;;;2.90;99.90;;;;;;5081471;28;20020;-69
2021/12/02 09:13:10;;;;;;;6.38;1.90;;;2.90;99.90;;;;;;5099372;28;20468;-69
2021/12/02 09:15:40;;;;;;;15.10;7.18;;;2.90;99.90;;;;;;5099032;28;20028;-70
2021/12/02 09:18:07;;;;;;;15.02;6.13;;;2.90;99.90;;;;;;5098716;28;20020;-70
2021/12/02 09:20:36;;;;;;;10.85;4.65;;;2.90;99.90;;;;;;5099181;28;20028;-70
2021/12/02 09:23:03;;;;;;;5.13;2.40;;;2.90;99.90;;;;;;5098378;28;20427;-70
2021/12/02 09:25:31;;;;;;;3.65;2.17;;;3.00;99.90;;;;;;5098506;28;20052;-69
2021/12/02 09:28:01;;;;;;;3.63;1.63;;;3.00;99.90;;;;;;5080297;28;20101;-69
2021/12/02 09:30:29;;;;;;;3.83;2.33;;;3.00;99.90;;;;;;5098379;28;20020;-69
2021/12/02 09:32:57;;;;;;;5.82;1.80;;;3.00;99.90;;;;;;5099136;28;20330;-68
2021/12/02 09:35:25;;;;;;;3.75;1.90;;;3.00;99.90;;;;;;5099277;28;20020;-69
2021/12/02 09:37:52;;;;;;;4.88;2.80;;;3.00;99.90;;;;;;5098918;28;20321;-69
2021/12/02 09:40:20;;;;;;;4.70;2.20;;;3.00;99.90;;;;;;5081422;28;20374;-69
2021/12/02 09:42:48;;;;;;;2.50;1.38;;;3.00;99.90;;;;;;5099668;28;20040;-69
2021/12/02 09:45:17;;;;;;;2.45;1.60;;;3.00;99.90;;;;;;5099136;28;20031;-69
2021/12/02 09:47:49;;;;;;;5.35;1.65;;;3.10;99.90;;;;;;5098961;28;20435;-69
2021/12/02 09:50:27;;;;;;;7.47;2.00;;;3.10;99.90;;;;;;5080728;28;20370;-69
2021/12/02 09:53:04;;;;;;;5.57;1.50;;;3.20;99.90;;;;;;5098279;28;20024;-69
2021/12/02 09:55:40;;;;;;;5.45;1.52;;;3.20;99.90;;;;;;5098475;28;20031;-69
2021/12/02 09:58:16;;;;;;;2.67;1.70;;;3.30;99.90;;;;;;5098119;28;20043;-69
2021/12/02 10:00:50;;;;;;;3.55;1.80;;;3.30;99.90;;;;;;5097996;28;20117;-71
2021/12/02 10:06:05;;;;;;;4.55;1.80;;;3.40;99.90;;;;;;5097739;28;20043;-72
2021/12/02 10:08:42;;;;;;;4.88;1.92;;;3.40;99.90;;;;;;5097509;28;20027;-71
2021/12/02 10:11:15;;;;;;;2.63;1.15;;;3.40;99.90;;;;;;5098835;28;20020;-70
2021/12/02 10:13:47;;;;;;;6.65;1.50;;;3.40;99.90;;;;;;5099455;28;20023;-70
2021/12/02 10:19:00;;;;;;;2.92;1.52;;;3.60;99.90;;;;;;5098436;28;20028;-70
2021/12/02 10:21:40;;;;;;;4.57;1.50;;;3.60;99.90;;;;;;5099096;28;20121;-70
2021/12/02 10:24:14;;;;;;;2.95;1.20;;;3.70;99.90;;;;;;5098503;28;20061;-71
2021/12/02 10:26:43;;;;;;;3.88;2.13;;;3.80;99.90;;;;;;5098657;28;20025;-70
2021/12/02 10:29:22;;;;;;;4.53;1.58;;;3.90;99.90;;;;;;5097890;28;20031;-70
2021/12/02 10:32:09;;;;;;;3.30;1.50;;;4.00;99.90;;;;;;5079329;28;20101;-70
2021/12/02 10:34:58;;;;;;;3.58;1.98;;;4.10;99.90;;;;;;5098003;28;20023;-70
2021/12/02 10:37:32;;;;;;;5.05;1.95;;;4.20;99.90;;;;;;5097164;28;20333;-70
2021/12/02 10:40:08;;;;;;;7.25;1.85;;;4.20;99.90;;;;;;5097784;28;20016;-69
2021/12/02 10:42:44;;;;;;;4.45;1.67;;;4.20;99.90;;;;;;5097111;28;20034;-69
2021/12/02 10:45:30;;;;;;;3.78;1.40;;;4.10;99.90;;;;;;5097289;28;20332;-69
2021/12/02 10:47:58;;;;;;;6.13;1.50;;;4.10;99.90;;;;;;5096880;28;20110;-70
2021/12/02 10:50:27;;;;;;;5.53;1.30;;;4.00;99.90;;;;;;5097712;28;20403;-69
2021/12/02 10:53:03;;;;;;;3.08;1.27;;;3.80;99.90;;;;;;5097896;28;20016;-69
2021/12/02 10:55:32;;;;;;;2.53;1.08;;;3.50;99.90;;;;;;5098130;28;20043;-69
2021/12/02 10:58:00;;;;;;;2.40;1.10;;;3.20;99.90;;;;;;5097487;28;20016;-69
2021/12/02 11:00:36;;;;;;;2.78;1.30;;;3.00;99.90;;;;;;5097508;28;20451;-68
2021/12/02 11:03:13;;;;;;;;;;;2.80;99.90;;;;;;5098876;28;20426;-68
2021/12/02 11:05:47;;;;;;;4.55;1.40;;;2.70;99.90;;;;;;5097510;28;19953;-68
2021/12/02 11:08:16;;;;;;;2.70;1.27;;;2.70;99.90;;;;;;5097067;28;20095;-71
2021/12/02 11:10:46;;;;;;;3.45;1.63;;;2.70;99.90;;;;;;5097134;28;20105;-71
2021/12/02 11:13:22;;;;;;;2.63;1.58;;;2.70;99.90;;;;;;5097497;28;20048;-72
2021/12/02 11:15:50;;;;;;;7.13;2.55;;;2.80;99.90;;;;;;5078760;28;20055;-69
2021/12/02 11:18:18;;;;;;;3.47;1.60;;;2.90;99.90;;;;;;5096632;28;20020;-69
2021/12/02 11:20:51;;;;;;;5.53;1.65;;;2.90;99.90;;;;;;5096652;28;20104;-71
2021/12/02 11:23:32;;;;;;;3.95;1.55;;;2.90;99.90;;;;;;5096650;28;20039;-71
2021/12/02 11:26:10;;;;;;;5.32;1.92;;;2.90;99.90;;;;;;5096207;28;20416;-71
2021/12/02 11:28:42;;;;;;;3.50;1.80;;;3.00;99.90;;;;;;5097025;28;20029;-69
2021/12/02 11:31:12;;;;;;;6.35;1.92;;;3.10;99.90;;;;;;5097354;28;20027;-68
2021/12/02 11:33:41;;;;;;;7.88;2.10;;;3.20;99.90;;;;;;5098062;28;20020;-69
2021/12/02 11:36:20;;;;;;;3.17;1.80;;;3.40;99.90;;;;;;5097219;28;20034;-69
2021/12/02 11:38:47;;;;;;;5.43;1.45;;;3.50;99.90;;;;;;5097198;28;20020;-70
2021/12/02 11:41:17;;;;;;;3.00;1.40;;;3.60;99.90;;;;;;5097917;28;20024;-70
2021/12/02 11:43:46;;;;;;;4.20;1.65;;;3.70;99.90;;;;;;5097775;28;20070;-69
2021/12/02 11:46:14;;;;;;;2.95;1.70;;;3.80;99.90;;;;;;5079089;28;20077;-70
2021/12/02 11:48:43;;;;;;;2.72;1.42;;;3.90;99.90;;;;;;5096412;28;20071;-69
2021/12/02 11:51:17;;;;;;;5.32;1.60;;;4.00;99.90;;;;;;5096354;28;20028;-70
2021/12/02 11:53:45;;;;;;;4.18;2.13;;;4.00;99.90;;;;;;5096461;28;20020;-69
2021/12/02 11:56:21;;;;;;;2.80;1.85;;;4.00;99.90;;;;;;5078320;28;20065;-69
2021/12/02 11:58:50;;;;;;;;;;;4.00;99.90;;;;;;5096915;28;20362;-70
2021/12/02 12:01:25;;;;;;;3.33;1.63;;;4.00;99.90;;;;;;5078116;28;19916;-69
2021/12/02 12:04:04;;;;;;;2.50;1.13;;;4.00;99.90;;;;;;5096290;28;20028;-68
2021/12/02 12:06:34;;;;;;;3.97;1.30;;;4.00;99.90;;;;;;5096251;28;20063;-68
2021/12/02 12:09:11;;;;;;;3.08;1.25;;;3.80;99.90;;;;;;5099735;28;20070;-68
2021/12/02 12:11:46;;;;;;;3.75;1.33;;;3.50;99.90;;;;;;5100906;28;20074;-69
2021/12/02 12:14:19;;;;;;;2.40;1.40;;;3.20;99.90;;;;;;5101461;28;20435;-68
2021/12/02 12:16:50;;;;;;;4.78;1.02;;;3.00;99.90;;;;;;5101020;28;20028;-68
2021/12/02 12:19:30;;;;;;;5.85;1.52;;;2.80;99.90;;;;;;5101102;28;20024;-68
2021/12/02 12:22:12;;;;;;;3.70;1.00;;;2.70;99.90;;;;;;5100390;28;20024;-68
2021/12/02 12:24:49;;;;;;;2.80;1.35;;;2.60;99.90;;;;;;5100974;28;20032;-68
2021/12/02 12:27:34;;;;;;;2.63;1.40;;;2.60;99.90;;;;;;5099899;28;20319;-68
2021/12/02 12:30:22;;;;;;;4.05;1.40;;;2.60;99.90;;;;;;5100387;28;20016;-68
2021/12/02 12:33:03;;;;;;;2.50;1.23;;;2.60;99.90;;;;;;5100204;28;20423;-68
2021/12/02 12:38:33;;;;;;;3.80;2.17;;;2.60;99.90;;;;;;5099603;28;20024;-68
2021/12/02 12:41:14;;;;;;;2.65;1.48;;;2.70;99.90;;;;;;5081925;28;20056;-68
2021/12/02 12:43:51;;;;;;;2.83;1.65;;;2.70;99.90;;;;;;5081384;28;20047;-68
2021/12/02 12:46:51;;;;;;;3.03;1.92;;;2.70;99.90;;;;;;5080897;28;20024;-68
2021/12/02 12:49:19;;;;;;;3.78;2.20;;;2.70;99.90;;;;;;5073688;28;20297;-68
2021/12/02 12:51:55;;;;;;;2.85;1.60;;;2.70;99.90;;;;;;5100394;28;20016;-71
2021/12/02 12:54:23;;;;;;;4.88;2.25;;;2.70;99.90;;;;;;5099793;28;20028;-68
2021/12/02 12:57:05;;;;;;;3.38;2.00;;;2.60;99.90;;;;;;5100627;28;20049;-70
2021/12/02 12:59:50;;;;;;;3.80;2.00;;;2.70;99.90;;;;;;5100503;28;20293;-69
2021/12/02 13:02:17;;;;;;;5.88;2.10;;;2.70;99.90;;;;;;5100449;28;20071;-69
2021/12/02 13:04:55;;;;;;;3.97;2.22;;;2.70;99.90;;;;;;5100014;28;20035;-69
2021/12/02 13:07:22;;;;;;;3.70;2.05;;;2.70;99.90;;;;;;5099136;28;20534;-68
2021/12/02 13:10:02;;;;;;;3.78;2.63;;;2.80;99.90;;;;;;5099027;28;20016;-68
2021/12/02 13:12:48;;;;;;;6.68;2.60;;;2.80;99.90;;;;;;5098772;28;20020;-68
2021/12/02 13:15:19;;;;;;;3.73;2.37;;;2.90;99.90;;;;;;5099029;28;20051;-68
2021/12/02 13:17:51;;;;;;;4.43;2.80;;;2.90;99.90;;;;;;5098732;28;20258;-69
2021/12/02 13:20:25;;;;;;;4.68;2.92;;;2.90;99.90;;;;;;5079760;28;20031;-69
2021/12/02 13:23:17;;;;;;;4.57;2.80;;;3.00;99.90;;;;;;5098743;28;20051;-69
2021/12/02 13:26:07;;;;;;;9.85;2.60;;;3.00;99.90;;;;;;5098969;28;20047;-69
2021/12/02 13:28:41;;;;;;;4.30;2.72;;;2.90;99.90;;;;;;5100265;28;20031;-68
2021/12/02 13:31:13;;;;;;;3.92;2.30;;;2.90;99.90;;;;;;5099291;28;20017;-69
2021/12/02 13:33:50;;;;;;;3.85;1.92;;;2.80;99.90;;;;;;5100118;28;20020;-69
2021/12/02 13:36:23;;;;;;;4.22;2.20;;;2.90;99.90;;;;;;5099300;28;20031;-69
2021/12/02 13:39:06;;;;;;;16.13;5.75;;;2.90;99.90;;;;;;5099340;28;20025;-69
2021/12/02 13:41:57;;;;;;;4.35;2.40;;;2.90;99.90;;;;;;5099294;28;20048;-68
2021/12/02 13:44:33;;;;;;;6.97;2.40;;;2.90;99.90;;;;;;5099397;28;20055;-69